sensor_id;sensor_type;location;lat;lon;timestamp;P1;durP1;ratioP1;P2;durP2;ratioP2
789;SDS011;378;48.844;9.156;2023-02-04T00:01:41;6.78;;;4.65;;
789;SDS011;378;48.844;9.156;2023-02-04T00:04:08;6.53;;;4.10;;
789;SDS011;378;48.844;9.156;2023-02-04T00:06:34;7.38;;;4.57;;
789;SDS011;378;48.844;9.156;2023-02-04T00:09:01;7.65;;;4.90;;
789;SDS011;378;48.844;9.156;2023-02-04T00:11:29;10.38;;;4.20;;
789;SDS011;378;48.844;9.156;2023-02-04T00:13:56;6.15;;;4.07;;
789;SDS011;378;48.844;9.156;2023-02-04T00:16:23;7.93;;;4.35;;
789;SDS011;378;48.844;9.156;2023-02-04T00:18:51;7.65;;;4.45;;
789;SDS011;378;48.844;9.156;2023-02-04T00:21:18;5.05;;;3.90;;
789;SDS011;378;48.844;9.156;2023-02-04T00:23:44;7.22;;;4.20;;
789;SDS011;378;48.844;9.156;2023-02-04T00:26:11;6.63;;;4.28;;
789;SDS011;378;48.844;9.156;2023-02-04T00:28:39;6.57;;;4.70;;
789;SDS011;378;48.844;9.156;2023-02-04T00:31:06;7.88;;;4.95;;
789;SDS011;378;48.844;9.156;2023-02-04T00:33:33;9.32;;;5.20;;
789;SDS011;378;48.844;9.156;2023-02-04T00:36:00;7.78;;;4.35;;
789;SDS011;378;48.844;9.156;2023-02-04T00:38:27;6.20;;;3.72;;
789;SDS011;378;48.844;9.156;2023-02-04T00:40:53;7.47;;;4.10;;
789;SDS011;378;48.844;9.156;2023-02-04T00:43:20;9.52;;;3.88;;
789;SDS011;378;48.844;9.156;2023-02-04T00:45:48;7.55;;;3.85;;
789;SDS011;378;48.844;9.156;2023-02-04T00:48:15;9.73;;;4.10;;
789;SDS011;378;48.844;9.156;2023-02-04T00:50:42;8.50;;;4.10;;
789;SDS011;378;48.844;9.156;2023-02-04T00:53:09;7.22;;;4.40;;
789;SDS011;378;48.844;9.156;2023-02-04T00:55:35;11.13;;;4.53;;
789;SDS011;378;48.844;9.156;2023-02-04T00:58:02;8.60;;;4.80;;
789;SDS011;378;48.844;9.156;2023-02-04T01:00:29;8.35;;;4.63;;
789;SDS011;378;48.844;9.156;2023-02-04T01:02:57;14.30;;;4.72;;
789;SDS011;378;48.844;9.156;2023-02-04T01:05:24;8.90;;;4.65;;
789;SDS011;378;48.844;9.156;2023-02-04T01:07:51;10.55;;;5.15;;
789;SDS011;378;48.844;9.156;2023-02-04T01:10:18;9.80;;;5.63;;
789;SDS011;378;48.844;9.156;2023-02-04T01:12:45;9.10;;;5.38;;
789;SDS011;378;48.844;9.156;2023-02-04T01:15:12;7.97;;;5.18;;
789;SDS011;378;48.844;9.156;2023-02-04T01:17:38;9.80;;;6.10;;
789;SDS011;378;48.844;9.156;2023-02-04T01:20:08;9.43;;;5.50;;
789;SDS011;378;48.844;9.156;2023-02-04T01:22:35;9.40;;;4.90;;
789;SDS011;378;48.844;9.156;2023-02-04T01:25:02;11.23;;;5.28;;
789;SDS011;378;48.844;9.156;2023-02-04T01:27:29;10.82;;;5.60;;
789;SDS011;378;48.844;9.156;2023-02-04T01:29:56;9.02;;;5.25;;
789;SDS011;378;48.844;9.156;2023-02-04T01:32:23;11.60;;;5.85;;
789;SDS011;378;48.844;9.156;2023-02-04T01:34:50;12.10;;;5.80;;
789;SDS011;378;48.844;9.156;2023-02-04T01:37:18;10.75;;;5.45;;
789;SDS011;378;48.844;9.156;2023-02-04T01:39:45;10.13;;;5.35;;
789;SDS011;378;48.844;9.156;2023-02-04T01:42:12;9.98;;;5.50;;
789;SDS011;378;48.844;9.156;2023-02-04T01:44:38;10.57;;;5.13;;
789;SDS011;378;48.844;9.156;2023-02-04T01:47:05;12.48;;;4.45;;
789;SDS011;378;48.844;9.156;2023-02-04T01:49:32;6.93;;;3.80;;
789;SDS011;378;48.844;9.156;2023-02-04T01:52:00;7.97;;;2.70;;
789;SDS011;378;48.844;9.156;2023-02-04T01:54:29;7.88;;;2.72;;
789;SDS011;378;48.844;9.156;2023-02-04T01:56:56;8.27;;;3.10;;
789;SDS011;378;48.844;9.156;2023-02-04T01:59:23;5.03;;;2.15;;
789;SDS011;378;48.844;9.156;2023-02-04T02:01:52;9.98;;;2.20;;
789;SDS011;378;48.844;9.156;2023-02-04T02:04:20;6.03;;;2.35;;
789;SDS011;378;48.844;9.156;2023-02-04T02:06:51;4.72;;;2.45;;
789;SDS011;378;48.844;9.156;2023-02-04T02:09:19;5.82;;;2.28;;
789;SDS011;378;48.844;9.156;2023-02-04T02:11:47;7.45;;;2.47;;
789;SDS011;378;48.844;9.156;2023-02-04T02:14:14;7.78;;;2.35;;
789;SDS011;378;48.844;9.156;2023-02-04T02:16:41;6.65;;;2.15;;
789;SDS011;378;48.844;9.156;2023-02-04T02:19:09;11.07;;;2.60;;
789;SDS011;378;48.844;9.156;2023-02-04T02:21:39;10.65;;;2.13;;
789;SDS011;378;48.844;9.156;2023-02-04T02:24:22;4.75;;;1.77;;
789;SDS011;378;48.844;9.156;2023-02-04T02:26:51;6.65;;;2.38;;
789;SDS011;378;48.844;9.156;2023-02-04T02:29:19;6.35;;;2.15;;
789;SDS011;378;48.844;9.156;2023-02-04T02:31:46;13.50;;;2.13;;
789;SDS011;378;48.844;9.156;2023-02-04T02:34:13;9.02;;;2.33;;
789;SDS011;378;48.844;9.156;2023-02-04T02:36:40;7.65;;;2.45;;
789;SDS011;378;48.844;9.156;2023-02-04T02:39:07;9.52;;;2.35;;
789;SDS011;378;48.844;9.156;2023-02-04T02:41:36;9.85;;;2.10;;
789;SDS011;378;48.844;9.156;2023-02-04T02:44:04;10.55;;;2.10;;
789;SDS011;378;48.844;9.156;2023-02-04T02:46:31;11.77;;;2.58;;
789;SDS011;378;48.844;9.156;2023-02-04T02:48:58;6.72;;;2.13;;
789;SDS011;378;48.844;9.156;2023-02-04T02:51:25;16.02;;;2.63;;
789;SDS011;378;48.844;9.156;2023-02-04T02:53:52;12.90;;;2.22;;
789;SDS011;378;48.844;9.156;2023-02-04T02:56:19;11.02;;;3.50;;
789;SDS011;378;48.844;9.156;2023-02-04T02:58:47;12.45;;;2.33;;
789;SDS011;378;48.844;9.156;2023-02-04T03:01:14;6.35;;;2.20;;
789;SDS011;378;48.844;9.156;2023-02-04T03:03:42;8.25;;;2.47;;
789;SDS011;378;48.844;9.156;2023-02-04T03:06:13;8.90;;;2.65;;
789;SDS011;378;48.844;9.156;2023-02-04T03:08:44;9.45;;;2.63;;
789;SDS011;378;48.844;9.156;2023-02-04T03:11:13;7.93;;;2.80;;
789;SDS011;378;48.844;9.156;2023-02-04T03:13:40;18.25;;;3.17;;
789;SDS011;378;48.844;9.156;2023-02-04T03:16:08;10.73;;;2.50;;
789;SDS011;378;48.844;9.156;2023-02-04T03:18:36;13.90;;;3.10;;
789;SDS011;378;48.844;9.156;2023-02-04T03:21:04;9.18;;;2.60;;
789;SDS011;378;48.844;9.156;2023-02-04T03:23:32;12.00;;;3.40;;
789;SDS011;378;48.844;9.156;2023-02-04T03:26:00;18.33;;;3.25;;
789;SDS011;378;48.844;9.156;2023-02-04T03:28:27;15.85;;;2.97;;
789;SDS011;378;48.844;9.156;2023-02-04T03:30:55;15.52;;;3.10;;
789;SDS011;378;48.844;9.156;2023-02-04T03:33:25;14.98;;;3.00;;
789;SDS011;378;48.844;9.156;2023-02-04T03:35:55;14.57;;;2.30;;
789;SDS011;378;48.844;9.156;2023-02-04T03:38:22;10.68;;;2.50;;
789;SDS011;378;48.844;9.156;2023-02-04T03:40:49;10.32;;;2.90;;
789;SDS011;378;48.844;9.156;2023-02-04T03:43:16;7.03;;;2.38;;
789;SDS011;378;48.844;9.156;2023-02-04T03:45:43;11.00;;;2.83;;
789;SDS011;378;48.844;9.156;2023-02-04T03:48:09;11.88;;;2.65;;
789;SDS011;378;48.844;9.156;2023-02-04T03:50:38;12.93;;;2.80;;
789;SDS011;378;48.844;9.156;2023-02-04T03:53:04;14.95;;;3.00;;
789;SDS011;378;48.844;9.156;2023-02-04T03:55:31;13.82;;;2.55;;
789;SDS011;378;48.844;9.156;2023-02-04T03:57:58;13.13;;;2.50;;
789;SDS011;378;48.844;9.156;2023-02-04T04:00:25;12.90;;;2.53;;
789;SDS011;378;48.844;9.156;2023-02-04T04:02:52;13.18;;;2.75;;
789;SDS011;378;48.844;9.156;2023-02-04T04:05:19;9.98;;;2.60;;
789;SDS011;378;48.844;9.156;2023-02-04T04:07:47;12.93;;;3.13;;
789;SDS011;378;48.844;9.156;2023-02-04T04:10:14;14.90;;;3.20;;
789;SDS011;378;48.844;9.156;2023-02-04T04:12:41;15.13;;;3.53;;
789;SDS011;378;48.844;9.156;2023-02-04T04:15:08;11.65;;;2.90;;
789;SDS011;378;48.844;9.156;2023-02-04T04:17:35;16.17;;;2.78;;
789;SDS011;378;48.844;9.156;2023-02-04T04:20:02;15.63;;;2.90;;
789;SDS011;378;48.844;9.156;2023-02-04T04:22:29;13.40;;;2.97;;
789;SDS011;378;48.844;9.156;2023-02-04T04:24:57;8.65;;;2.90;;
789;SDS011;378;48.844;9.156;2023-02-04T04:27:24;8.20;;;2.80;;
789;SDS011;378;48.844;9.156;2023-02-04T04:29:51;10.23;;;3.00;;
789;SDS011;378;48.844;9.156;2023-02-04T04:32:17;12.13;;;2.70;;
789;SDS011;378;48.844;9.156;2023-02-04T04:34:44;15.30;;;3.05;;
789;SDS011;378;48.844;9.156;2023-02-04T04:37:11;10.82;;;3.15;;
789;SDS011;378;48.844;9.156;2023-02-04T04:39:38;13.77;;;3.42;;
789;SDS011;378;48.844;9.156;2023-02-04T04:42:06;9.40;;;3.00;;
789;SDS011;378;48.844;9.156;2023-02-04T04:44:33;10.88;;;3.60;;
789;SDS011;378;48.844;9.156;2023-02-04T04:47:00;12.50;;;3.03;;
789;SDS011;378;48.844;9.156;2023-02-04T04:49:27;16.38;;;3.60;;
789;SDS011;378;48.844;9.156;2023-02-04T04:51:54;8.70;;;2.97;;
789;SDS011;378;48.844;9.156;2023-02-04T04:54:21;18.67;;;3.42;;
789;SDS011;378;48.844;9.156;2023-02-04T04:56:48;9.82;;;3.20;;
789;SDS011;378;48.844;9.156;2023-02-04T04:59:16;11.43;;;3.30;;
789;SDS011;378;48.844;9.156;2023-02-04T05:01:42;13.13;;;3.03;;
789;SDS011;378;48.844;9.156;2023-02-04T05:04:09;12.23;;;3.38;;
789;SDS011;378;48.844;9.156;2023-02-04T05:06:36;15.02;;;3.35;;
789;SDS011;378;48.844;9.156;2023-02-04T05:09:03;18.63;;;3.97;;
789;SDS011;378;48.844;9.156;2023-02-04T05:11:30;15.00;;;3.67;;
789;SDS011;378;48.844;9.156;2023-02-04T05:13:57;14.98;;;3.83;;
789;SDS011;378;48.844;9.156;2023-02-04T05:16:25;8.20;;;4.00;;
789;SDS011;378;48.844;9.156;2023-02-04T05:18:52;16.17;;;4.47;;
789;SDS011;378;48.844;9.156;2023-02-04T05:21:19;11.23;;;4.38;;
789;SDS011;378;48.844;9.156;2023-02-04T05:23:45;12.80;;;4.57;;
789;SDS011;378;48.844;9.156;2023-02-04T05:26:12;16.10;;;4.38;;
789;SDS011;378;48.844;9.156;2023-02-04T05:28:39;13.35;;;4.75;;
789;SDS011;378;48.844;9.156;2023-02-04T05:31:06;15.15;;;4.72;;
789;SDS011;378;48.844;9.156;2023-02-04T05:33:34;16.50;;;4.90;;
789;SDS011;378;48.844;9.156;2023-02-04T05:36:01;11.45;;;4.88;;
789;SDS011;378;48.844;9.156;2023-02-04T05:38:28;11.23;;;4.95;;
789;SDS011;378;48.844;9.156;2023-02-04T05:40:55;14.30;;;5.30;;
789;SDS011;378;48.844;9.156;2023-02-04T05:43:22;17.92;;;5.65;;
789;SDS011;378;48.844;9.156;2023-02-04T05:45:48;17.33;;;5.75;;
789;SDS011;378;48.844;9.156;2023-02-04T05:48:15;13.93;;;5.18;;
789;SDS011;378;48.844;9.156;2023-02-04T05:50:43;24.83;;;5.93;;
789;SDS011;378;48.844;9.156;2023-02-04T05:53:10;15.80;;;5.18;;
789;SDS011;378;48.844;9.156;2023-02-04T05:55:37;21.95;;;6.13;;
789;SDS011;378;48.844;9.156;2023-02-04T05:58:04;19.42;;;5.82;;
789;SDS011;378;48.844;9.156;2023-02-04T06:00:31;13.23;;;5.40;;
789;SDS011;378;48.844;9.156;2023-02-04T06:02:57;20.92;;;6.00;;
789;SDS011;378;48.844;9.156;2023-02-04T06:05:24;19.75;;;5.60;;
789;SDS011;378;48.844;9.156;2023-02-04T06:07:52;24.30;;;6.43;;
789;SDS011;378;48.844;9.156;2023-02-04T06:10:19;20.35;;;6.55;;
789;SDS011;378;48.844;9.156;2023-02-04T06:12:46;26.10;;;6.20;;
789;SDS011;378;48.844;9.156;2023-02-04T06:15:13;13.95;;;5.72;;
789;SDS011;378;48.844;9.156;2023-02-04T06:17:40;12.48;;;5.72;;
789;SDS011;378;48.844;9.156;2023-02-04T06:20:07;22.40;;;6.63;;
789;SDS011;378;48.844;9.156;2023-02-04T06:22:36;19.80;;;6.22;;
789;SDS011;378;48.844;9.156;2023-02-04T06:25:04;18.13;;;5.82;;
789;SDS011;378;48.844;9.156;2023-02-04T06:27:31;22.52;;;6.40;;
789;SDS011;378;48.844;9.156;2023-02-04T06:29:58;27.38;;;6.22;;
789;SDS011;378;48.844;9.156;2023-02-04T06:32:25;21.88;;;6.07;;
789;SDS011;378;48.844;9.156;2023-02-04T06:34:52;25.88;;;6.70;;
789;SDS011;378;48.844;9.156;2023-02-04T06:37:19;21.70;;;6.82;;
789;SDS011;378;48.844;9.156;2023-02-04T06:39:45;25.02;;;6.72;;
789;SDS011;378;48.844;9.156;2023-02-04T06:42:14;24.15;;;6.28;;
789;SDS011;378;48.844;9.156;2023-02-04T06:44:40;25.65;;;6.63;;
789;SDS011;378;48.844;9.156;2023-02-04T06:47:07;23.63;;;6.68;;
789;SDS011;378;48.844;9.156;2023-02-04T06:49:34;23.42;;;6.32;;
789;SDS011;378;48.844;9.156;2023-02-04T06:52:01;24.75;;;6.55;;
789;SDS011;378;48.844;9.156;2023-02-04T06:54:28;24.13;;;6.45;;
789;SDS011;378;48.844;9.156;2023-02-04T06:56:55;28.08;;;6.30;;
789;SDS011;378;48.844;9.156;2023-02-04T06:59:29;25.83;;;6.75;;
789;SDS011;378;48.844;9.156;2023-02-04T07:01:57;24.92;;;6.25;;
789;SDS011;378;48.844;9.156;2023-02-04T07:04:24;30.25;;;6.35;;
789;SDS011;378;48.844;9.156;2023-02-04T07:06:50;25.65;;;5.93;;
789;SDS011;378;48.844;9.156;2023-02-04T07:09:17;20.25;;;6.10;;
789;SDS011;378;48.844;9.156;2023-02-04T07:11:44;25.52;;;6.25;;
789;SDS011;378;48.844;9.156;2023-02-04T07:14:11;17.90;;;5.50;;
789;SDS011;378;48.844;9.156;2023-02-04T07:16:39;24.80;;;6.25;;
789;SDS011;378;48.844;9.156;2023-02-04T07:19:06;33.08;;;6.07;;
789;SDS011;378;48.844;9.156;2023-02-04T07:21:33;20.85;;;5.95;;
789;SDS011;378;48.844;9.156;2023-02-04T07:24:00;21.10;;;5.85;;
789;SDS011;378;48.844;9.156;2023-02-04T07:26:27;21.55;;;5.95;;
789;SDS011;378;48.844;9.156;2023-02-04T07:28:53;19.48;;;5.63;;
789;SDS011;378;48.844;9.156;2023-02-04T07:31:20;23.42;;;6.20;;
789;SDS011;378;48.844;9.156;2023-02-04T07:33:49;21.08;;;6.32;;
789;SDS011;378;48.844;9.156;2023-02-04T07:36:15;21.67;;;6.35;;
789;SDS011;378;48.844;9.156;2023-02-04T07:38:42;29.40;;;7.70;;
789;SDS011;378;48.844;9.156;2023-02-04T07:41:09;24.35;;;8.20;;
789;SDS011;378;48.844;9.156;2023-02-04T07:43:36;25.75;;;6.72;;
789;SDS011;378;48.844;9.156;2023-02-04T07:46:03;24.02;;;7.55;;
789;SDS011;378;48.844;9.156;2023-02-04T07:48:30;25.77;;;6.85;;
789;SDS011;378;48.844;9.156;2023-02-04T07:50:58;27.92;;;8.35;;
789;SDS011;378;48.844;9.156;2023-02-04T07:53:25;23.50;;;8.50;;
789;SDS011;378;48.844;9.156;2023-02-04T07:55:51;19.38;;;7.25;;
789;SDS011;378;48.844;9.156;2023-02-04T07:58:18;25.17;;;6.18;;
789;SDS011;378;48.844;9.156;2023-02-04T08:00:45;19.35;;;5.55;;
789;SDS011;378;48.844;9.156;2023-02-04T08:03:12;24.55;;;5.68;;
789;SDS011;378;48.844;9.156;2023-02-04T08:05:39;25.98;;;5.85;;
789;SDS011;378;48.844;9.156;2023-02-04T08:08:07;25.38;;;5.63;;
789;SDS011;378;48.844;9.156;2023-02-04T08:10:34;24.77;;;6.35;;
789;SDS011;378;48.844;9.156;2023-02-04T08:13:01;21.63;;;6.82;;
789;SDS011;378;48.844;9.156;2023-02-04T08:15:28;18.23;;;5.28;;
789;SDS011;378;48.844;9.156;2023-02-04T08:17:54;23.20;;;5.78;;
789;SDS011;378;48.844;9.156;2023-02-04T08:20:21;23.10;;;5.80;;
789;SDS011;378;48.844;9.156;2023-02-04T08:22:48;24.65;;;4.97;;
789;SDS011;378;48.844;9.156;2023-02-04T08:25:16;18.10;;;5.50;;
789;SDS011;378;48.844;9.156;2023-02-04T08:27:43;18.35;;;5.53;;
789;SDS011;378;48.844;9.156;2023-02-04T08:30:10;22.77;;;5.47;;
789;SDS011;378;48.844;9.156;2023-02-04T08:32:37;19.90;;;5.32;;
789;SDS011;378;48.844;9.156;2023-02-04T08:35:04;25.02;;;5.57;;
789;SDS011;378;48.844;9.156;2023-02-04T08:37:32;24.77;;;5.30;;
789;SDS011;378;48.844;9.156;2023-02-04T08:39:59;16.85;;;5.65;;
789;SDS011;378;48.844;9.156;2023-02-04T08:42:27;21.15;;;6.35;;
789;SDS011;378;48.844;9.156;2023-02-04T08:44:54;19.98;;;5.75;;
789;SDS011;378;48.844;9.156;2023-02-04T08:47:21;12.85;;;5.40;;
789;SDS011;378;48.844;9.156;2023-02-04T08:49:48;18.73;;;5.65;;
789;SDS011;378;48.844;9.156;2023-02-04T08:52:14;19.25;;;5.53;;
789;SDS011;378;48.844;9.156;2023-02-04T08:54:41;15.57;;;5.72;;
789;SDS011;378;48.844;9.156;2023-02-04T08:57:08;14.25;;;5.72;;
789;SDS011;378;48.844;9.156;2023-02-04T08:59:36;17.45;;;5.80;;
789;SDS011;378;48.844;9.156;2023-02-04T09:02:03;18.00;;;5.90;;
789;SDS011;378;48.844;9.156;2023-02-04T09:04:30;16.92;;;5.63;;
789;SDS011;378;48.844;9.156;2023-02-04T09:06:57;19.48;;;6.50;;
789;SDS011;378;48.844;9.156;2023-02-04T09:09:24;21.40;;;7.30;;
789;SDS011;378;48.844;9.156;2023-02-04T09:11:51;17.17;;;6.82;;
789;SDS011;378;48.844;9.156;2023-02-04T09:14:17;21.80;;;6.32;;
789;SDS011;378;48.844;9.156;2023-02-04T09:16:46;21.33;;;6.63;;
789;SDS011;378;48.844;9.156;2023-02-04T09:19:13;18.38;;;5.82;;
789;SDS011;378;48.844;9.156;2023-02-04T09:21:40;13.25;;;4.90;;
789;SDS011;378;48.844;9.156;2023-02-04T09:24:07;16.63;;;4.38;;
789;SDS011;378;48.844;9.156;2023-02-04T09:26:36;14.52;;;3.88;;
789;SDS011;378;48.844;9.156;2023-02-04T09:29:03;8.00;;;3.20;;
789;SDS011;378;48.844;9.156;2023-02-04T09:31:30;11.10;;;4.00;;
789;SDS011;378;48.844;9.156;2023-02-04T09:33:58;12.27;;;3.67;;
789;SDS011;378;48.844;9.156;2023-02-04T09:36:25;14.98;;;3.47;;
789;SDS011;378;48.844;9.156;2023-02-04T09:38:54;12.93;;;3.15;;
789;SDS011;378;48.844;9.156;2023-02-04T09:41:21;15.15;;;3.90;;
789;SDS011;378;48.844;9.156;2023-02-04T09:43:48;18.45;;;3.83;;
789;SDS011;378;48.844;9.156;2023-02-04T09:46:17;24.60;;;3.45;;
789;SDS011;378;48.844;9.156;2023-02-04T09:48:47;18.73;;;3.50;;
789;SDS011;378;48.844;9.156;2023-02-04T09:51:16;15.55;;;3.10;;
789;SDS011;378;48.844;9.156;2023-02-04T09:53:44;13.80;;;3.15;;
789;SDS011;378;48.844;9.156;2023-02-04T09:56:12;13.63;;;3.15;;
789;SDS011;378;48.844;9.156;2023-02-04T09:58:39;19.73;;;3.50;;
789;SDS011;378;48.844;9.156;2023-02-04T10:01:09;24.58;;;3.17;;
789;SDS011;378;48.844;9.156;2023-02-04T10:03:39;28.27;;;4.00;;
789;SDS011;378;48.844;9.156;2023-02-04T10:06:10;24.58;;;3.63;;
789;SDS011;378;48.844;9.156;2023-02-04T10:08:39;16.90;;;3.22;;
789;SDS011;378;48.844;9.156;2023-02-04T10:11:07;23.38;;;4.00;;
789;SDS011;378;48.844;9.156;2023-02-04T10:13:35;17.85;;;3.40;;
789;SDS011;378;48.844;9.156;2023-02-04T10:16:08;18.92;;;3.70;;
789;SDS011;378;48.844;9.156;2023-02-04T10:18:40;16.80;;;2.80;;
789;SDS011;378;48.844;9.156;2023-02-04T10:21:11;24.85;;;3.28;;
789;SDS011;378;48.844;9.156;2023-02-04T10:23:43;12.45;;;2.65;;
789;SDS011;378;48.844;9.156;2023-02-04T10:26:13;13.30;;;2.85;;
789;SDS011;378;48.844;9.156;2023-02-04T10:28:41;11.43;;;2.38;;
789;SDS011;378;48.844;9.156;2023-02-04T10:31:29;13.00;;;2.63;;
789;SDS011;378;48.844;9.156;2023-02-04T10:34:01;22.88;;;2.90;;
789;SDS011;378;48.844;9.156;2023-02-04T10:36:29;18.27;;;3.33;;
789;SDS011;378;48.844;9.156;2023-02-04T10:39:02;19.35;;;3.10;;
789;SDS011;378;48.844;9.156;2023-02-04T10:41:30;14.45;;;2.72;;
789;SDS011;378;48.844;9.156;2023-02-04T10:44:04;26.40;;;3.67;;
789;SDS011;378;48.844;9.156;2023-02-04T10:46:32;17.33;;;2.97;;
789;SDS011;378;48.844;9.156;2023-02-04T10:48:59;19.17;;;2.88;;
789;SDS011;378;48.844;9.156;2023-02-04T10:51:26;18.50;;;3.08;;
789;SDS011;378;48.844;9.156;2023-02-04T10:53:53;11.15;;;3.10;;
789;SDS011;378;48.844;9.156;2023-02-04T10:56:39;19.10;;;2.97;;
789;SDS011;378;48.844;9.156;2023-02-04T10:59:08;22.45;;;3.95;;
789;SDS011;378;48.844;9.156;2023-02-04T11:01:46;20.38;;;3.40;;
789;SDS011;378;48.844;9.156;2023-02-04T11:04:12;20.30;;;3.53;;
789;SDS011;378;48.844;9.156;2023-02-04T11:06:39;19.92;;;3.00;;
789;SDS011;378;48.844;9.156;2023-02-04T11:09:09;23.73;;;3.08;;
789;SDS011;378;48.844;9.156;2023-02-04T11:11:39;17.40;;;2.40;;
789;SDS011;378;48.844;9.156;2023-02-04T11:14:20;22.45;;;3.42;;
789;SDS011;378;48.844;9.156;2023-02-04T11:16:48;15.27;;;3.65;;
789;SDS011;378;48.844;9.156;2023-02-04T11:19:28;15.80;;;3.17;;
789;SDS011;378;48.844;9.156;2023-02-04T11:22:03;20.27;;;2.85;;
789;SDS011;378;48.844;9.156;2023-02-04T11:24:32;26.15;;;4.18;;
789;SDS011;378;48.844;9.156;2023-02-04T11:27:16;17.75;;;3.47;;
789;SDS011;378;48.844;9.156;2023-02-04T11:29:46;20.40;;;2.97;;
789;SDS011;378;48.844;9.156;2023-02-04T11:32:26;32.58;;;4.00;;
789;SDS011;378;48.844;9.156;2023-02-04T11:35:04;23.77;;;3.05;;
789;SDS011;378;48.844;9.156;2023-02-04T11:37:34;15.93;;;3.10;;
789;SDS011;378;48.844;9.156;2023-02-04T11:42:57;12.18;;;2.28;;
789;SDS011;378;48.844;9.156;2023-02-04T11:45:26;16.52;;;2.60;;
789;SDS011;378;48.844;9.156;2023-02-04T11:47:55;13.85;;;2.15;;
789;SDS011;378;48.844;9.156;2023-02-04T11:50:25;15.80;;;2.80;;
789;SDS011;378;48.844;9.156;2023-02-04T11:52:55;17.17;;;2.92;;
789;SDS011;378;48.844;9.156;2023-02-04T11:55:22;12.85;;;2.45;;
789;SDS011;378;48.844;9.156;2023-02-04T11:57:50;15.23;;;2.70;;
789;SDS011;378;48.844;9.156;2023-02-04T12:00:20;16.10;;;3.15;;
789;SDS011;378;48.844;9.156;2023-02-04T12:02:49;15.60;;;3.40;;
789;SDS011;378;48.844;9.156;2023-02-04T12:05:20;15.15;;;2.45;;
789;SDS011;378;48.844;9.156;2023-02-04T12:07:47;10.02;;;2.30;;
789;SDS011;378;48.844;9.156;2023-02-04T12:10:22;13.13;;;2.63;;
789;SDS011;378;48.844;9.156;2023-02-04T12:12:51;20.33;;;3.00;;
789;SDS011;378;48.844;9.156;2023-02-04T12:15:23;7.10;;;2.22;;
789;SDS011;378;48.844;9.156;2023-02-04T12:18:00;8.85;;;2.15;;
789;SDS011;378;48.844;9.156;2023-02-04T12:20:28;22.63;;;3.15;;
789;SDS011;378;48.844;9.156;2023-02-04T12:22:55;13.95;;;2.22;;
789;SDS011;378;48.844;9.156;2023-02-04T12:25:22;9.38;;;1.63;;
789;SDS011;378;48.844;9.156;2023-02-04T12:27:51;7.68;;;1.95;;
789;SDS011;378;48.844;9.156;2023-02-04T12:30:18;12.82;;;2.30;;
789;SDS011;378;48.844;9.156;2023-02-04T12:32:47;16.98;;;2.65;;
789;SDS011;378;48.844;9.156;2023-02-04T12:35:14;11.68;;;2.40;;
789;SDS011;378;48.844;9.156;2023-02-04T12:37:41;16.42;;;2.85;;
789;SDS011;378;48.844;9.156;2023-02-04T12:40:09;19.35;;;2.80;;
789;SDS011;378;48.844;9.156;2023-02-04T12:42:39;20.00;;;2.42;;
789;SDS011;378;48.844;9.156;2023-02-04T12:45:07;15.70;;;3.70;;
789;SDS011;378;48.844;9.156;2023-02-04T12:47:34;12.13;;;3.05;;
789;SDS011;378;48.844;9.156;2023-02-04T12:50:02;10.25;;;2.20;;
789;SDS011;378;48.844;9.156;2023-02-04T12:52:30;17.60;;;2.90;;
789;SDS011;378;48.844;9.156;2023-02-04T12:54:57;13.20;;;2.25;;
789;SDS011;378;48.844;9.156;2023-02-04T12:57:24;18.13;;;2.63;;
789;SDS011;378;48.844;9.156;2023-02-04T12:59:51;15.27;;;2.92;;
789;SDS011;378;48.844;9.156;2023-02-04T13:02:19;18.05;;;3.33;;
789;SDS011;378;48.844;9.156;2023-02-04T13:04:46;11.23;;;2.50;;
789;SDS011;378;48.844;9.156;2023-02-04T13:07:14;16.42;;;2.83;;
789;SDS011;378;48.844;9.156;2023-02-04T13:09:41;15.15;;;2.92;;
789;SDS011;378;48.844;9.156;2023-02-04T13:12:09;25.73;;;3.10;;
789;SDS011;378;48.844;9.156;2023-02-04T13:14:37;12.30;;;2.72;;
789;SDS011;378;48.844;9.156;2023-02-04T13:17:05;17.67;;;2.92;;
789;SDS011;378;48.844;9.156;2023-02-04T13:19:32;23.50;;;3.00;;
789;SDS011;378;48.844;9.156;2023-02-04T13:21:59;17.50;;;2.80;;
789;SDS011;378;48.844;9.156;2023-02-04T13:24:27;18.35;;;2.90;;
789;SDS011;378;48.844;9.156;2023-02-04T13:26:54;17.50;;;3.58;;
789;SDS011;378;48.844;9.156;2023-02-04T13:29:22;18.75;;;2.70;;
789;SDS011;378;48.844;9.156;2023-02-04T13:31:49;12.57;;;2.67;;
789;SDS011;378;48.844;9.156;2023-02-04T13:34:16;10.55;;;2.65;;
789;SDS011;378;48.844;9.156;2023-02-04T13:36:43;12.50;;;2.60;;
789;SDS011;378;48.844;9.156;2023-02-04T13:39:10;18.73;;;2.67;;
789;SDS011;378;48.844;9.156;2023-02-04T13:41:38;18.85;;;3.00;;
789;SDS011;378;48.844;9.156;2023-02-04T13:44:05;19.63;;;2.95;;
789;SDS011;378;48.844;9.156;2023-02-04T13:46:32;11.20;;;2.45;;
789;SDS011;378;48.844;9.156;2023-02-04T13:48:59;18.98;;;3.22;;
789;SDS011;378;48.844;9.156;2023-02-04T13:51:26;13.63;;;3.17;;
789;SDS011;378;48.844;9.156;2023-02-04T13:53:53;15.45;;;2.72;;
789;SDS011;378;48.844;9.156;2023-02-04T13:56:20;12.60;;;2.88;;
789;SDS011;378;48.844;9.156;2023-02-04T13:58:48;13.68;;;3.13;;
789;SDS011;378;48.844;9.156;2023-02-04T14:01:15;21.75;;;3.92;;
789;SDS011;378;48.844;9.156;2023-02-04T14:03:42;15.10;;;3.28;;
789;SDS011;378;48.844;9.156;2023-02-04T14:06:09;18.08;;;2.92;;
789;SDS011;378;48.844;9.156;2023-02-04T14:08:36;18.33;;;2.78;;
789;SDS011;378;48.844;9.156;2023-02-04T14:11:03;15.73;;;2.65;;
789;SDS011;378;48.844;9.156;2023-02-04T14:13:31;13.82;;;2.92;;
789;SDS011;378;48.844;9.156;2023-02-04T14:15:59;12.32;;;2.53;;
789;SDS011;378;48.844;9.156;2023-02-04T14:18:26;12.75;;;2.92;;
789;SDS011;378;48.844;9.156;2023-02-04T14:20:53;18.38;;;3.00;;
789;SDS011;378;48.844;9.156;2023-02-04T14:23:20;16.40;;;2.35;;
789;SDS011;378;48.844;9.156;2023-02-04T14:25:47;12.00;;;2.33;;
789;SDS011;378;48.844;9.156;2023-02-04T14:28:14;15.93;;;2.78;;
789;SDS011;378;48.844;9.156;2023-02-04T14:30:41;12.48;;;2.58;;
789;SDS011;378;48.844;9.156;2023-02-04T14:33:09;14.82;;;2.58;;
789;SDS011;378;48.844;9.156;2023-02-04T14:35:37;11.52;;;2.22;;
789;SDS011;378;48.844;9.156;2023-02-04T14:38:03;12.70;;;2.60;;
789;SDS011;378;48.844;9.156;2023-02-04T14:40:30;34.70;;;4.80;;
789;SDS011;378;48.844;9.156;2023-02-04T14:42:57;11.63;;;2.35;;
789;SDS011;378;48.844;9.156;2023-02-04T14:45:24;16.83;;;2.33;;
789;SDS011;378;48.844;9.156;2023-02-04T14:47:51;9.48;;;2.20;;
789;SDS011;378;48.844;9.156;2023-02-04T14:50:22;27.52;;;3.83;;
789;SDS011;378;48.844;9.156;2023-02-04T14:52:51;10.95;;;2.55;;
789;SDS011;378;48.844;9.156;2023-02-04T14:55:18;10.40;;;2.78;;
789;SDS011;378;48.844;9.156;2023-02-04T14:57:45;11.95;;;2.20;;
789;SDS011;378;48.844;9.156;2023-02-04T15:00:12;13.93;;;2.30;;
789;SDS011;378;48.844;9.156;2023-02-04T15:02:40;12.60;;;1.80;;
789;SDS011;378;48.844;9.156;2023-02-04T15:05:07;4.25;;;1.27;;
789;SDS011;378;48.844;9.156;2023-02-04T15:07:36;4.45;;;1.33;;
789;SDS011;378;48.844;9.156;2023-02-04T15:10:03;13.98;;;2.00;;
789;SDS011;378;48.844;9.156;2023-02-04T15:12:31;11.32;;;2.05;;
789;SDS011;378;48.844;9.156;2023-02-04T15:14:58;8.68;;;1.58;;
789;SDS011;378;48.844;9.156;2023-02-04T15:17:25;9.30;;;1.70;;
789;SDS011;378;48.844;9.156;2023-02-04T15:19:51;10.57;;;1.77;;
789;SDS011;378;48.844;9.156;2023-02-04T15:22:18;12.73;;;1.67;;
789;SDS011;378;48.844;9.156;2023-02-04T15:24:46;14.20;;;2.03;;
789;SDS011;378;48.844;9.156;2023-02-04T15:27:13;7.65;;;1.83;;
789;SDS011;378;48.844;9.156;2023-02-04T15:29:40;9.45;;;1.80;;
789;SDS011;378;48.844;9.156;2023-02-04T15:32:07;14.32;;;2.10;;
789;SDS011;378;48.844;9.156;2023-02-04T15:34:34;5.68;;;1.92;;
789;SDS011;378;48.844;9.156;2023-02-04T15:37:01;3.60;;;1.30;;
789;SDS011;378;48.844;9.156;2023-02-04T15:39:28;18.08;;;2.25;;